createdAt,value
2023-02-12T00:00:09.019Z,23.60
2023-02-12T00:02:35.437Z,23.52
2023-02-12T00:05:01.812Z,22.77
2023-02-12T00:07:30.199Z,24.92
2023-02-12T00:09:56.621Z,24.00
2023-02-12T00:12:23.008Z,26.30
2023-02-12T00:14:49.323Z,24.83
2023-02-12T00:17:15.647Z,25.95
2023-02-12T00:19:41.951Z,25.63
2023-02-12T00:22:08.309Z,25.83
2023-02-12T00:24:34.695Z,26.45
2023-02-12T00:27:01.065Z,25.58
2023-02-12T00:29:27.485Z,26.63
2023-02-12T00:31:53.887Z,26.30
2023-02-12T00:34:20.301Z,27.35
2023-02-12T00:36:46.662Z,26.55
2023-02-12T00:39:13.031Z,26.80
2023-02-12T00:41:39.377Z,25.73
2023-02-12T00:44:05.770Z,27.40
2023-02-12T00:46:32.245Z,27.35
2023-02-12T00:48:58.752Z,26.90
2023-02-12T00:51:25.110Z,27.15
2023-02-12T00:53:51.669Z,27.67
2023-02-12T00:56:18.001Z,27.65
2023-02-12T00:58:44.416Z,29.38
2023-02-12T01:01:11.080Z,27.70
2023-02-12T01:03:38.508Z,27.40
2023-02-12T01:06:06.096Z,26.75
2023-02-12T01:08:32.437Z,27.70
2023-02-12T01:10:59.936Z,26.30
2023-02-12T01:13:26.798Z,28.20
2023-02-12T01:16:03.630Z,27.20
2023-02-12T01:18:30.384Z,26.63
2023-02-12T01:20:58.869Z,27.35
2023-02-12T01:23:25.238Z,26.90
2023-02-12T01:25:51.649Z,26.42
2023-02-12T01:28:18.160Z,27.00
2023-02-12T01:30:44.605Z,27.45
2023-02-12T01:33:10.929Z,26.88
2023-02-12T01:35:37.800Z,27.23
2023-02-12T01:38:04.170Z,27.05
2023-02-12T01:40:30.482Z,28.58
2023-02-12T01:43:00.102Z,28.55
2023-02-12T01:45:31.623Z,29.17
2023-02-12T01:47:59.815Z,29.27
2023-02-12T01:50:26.277Z,30.40
2023-02-12T01:52:54.240Z,27.77
2023-02-12T01:55:21.002Z,27.88
2023-02-12T01:57:48.226Z,28.70
2023-02-12T02:00:16.276Z,28.75
2023-02-12T02:02:44.188Z,28.60
2023-02-12T02:05:12.924Z,29.33
2023-02-12T02:07:40.272Z,27.80
2023-02-12T02:10:07.092Z,27.83
2023-02-12T02:12:52.278Z,29.42
2023-02-12T02:15:18.735Z,29.60
2023-02-12T02:18:04.074Z,29.38
2023-02-12T02:20:36.458Z,28.15
2023-02-12T02:23:02.834Z,28.98
2023-02-12T02:25:48.070Z,28.17
2023-02-12T02:28:33.311Z,28.73
2023-02-12T02:31:06.160Z,29.45
2023-02-12T02:33:38.384Z,28.35
2023-02-12T02:36:13.844Z,28.58
2023-02-12T02:38:50.393Z,27.98
2023-02-12T02:41:36.069Z,29.65
2023-02-12T02:44:05.260Z,28.05
2023-02-12T02:46:43.275Z,29.23
2023-02-12T02:49:13.676Z,28.55
2023-02-12T02:51:41.472Z,28.17
2023-02-12T02:54:10.340Z,29.60
2023-02-12T02:56:38.131Z,27.75
2023-02-12T02:59:07.650Z,28.02
2023-02-12T03:01:39.302Z,28.52
2023-02-12T03:04:10.998Z,29.95
2023-02-12T03:06:47.023Z,29.70
2023-02-12T03:09:33.635Z,29.38
2023-02-12T03:12:03.320Z,28.27
2023-02-12T03:14:31.535Z,30.13
2023-02-12T03:16:57.949Z,30.23
2023-02-12T03:19:25.814Z,29.08
2023-02-12T03:22:00.644Z,32.05
2023-02-12T03:24:37.438Z,23.58
2023-02-12T03:27:13.170Z,29.60
2023-02-12T03:29:39.554Z,29.40
2023-02-12T03:32:15.016Z,31.50
2023-02-12T03:34:44.446Z,30.52
2023-02-12T03:37:31.051Z,30.45
2023-02-12T03:40:03.466Z,32.38
2023-02-12T03:42:35.521Z,29.85
2023-02-12T03:45:05.149Z,30.67
2023-02-12T03:47:31.758Z,31.15
2023-02-12T03:50:00.936Z,30.35
2023-02-12T03:52:28.524Z,31.65
2023-02-12T03:54:55.013Z,31.60
2023-02-12T03:57:22.653Z,29.50
2023-02-12T03:59:49.237Z,29.88
2023-02-12T04:02:16.389Z,29.00
2023-02-12T04:04:43.975Z,29.83
2023-02-12T04:07:11.422Z,31.13
2023-02-12T04:09:38.455Z,29.48
2023-02-12T04:12:10.913Z,27.73
2023-02-12T04:14:48.743Z,29.23
2023-02-12T04:17:15.234Z,29.70
2023-02-12T04:19:51.219Z,29.02
2023-02-12T04:22:36.439Z,29.17
2023-02-12T04:25:05.751Z,28.38
2023-02-12T04:27:38.005Z,27.45
2023-02-12T04:30:04.369Z,28.00
2023-02-12T04:32:33.644Z,29.30
2023-02-12T04:34:59.945Z,30.02
2023-02-12T04:37:28.811Z,27.88
2023-02-12T04:39:56.238Z,29.55
2023-02-12T04:42:22.882Z,29.58
2023-02-12T04:44:51.971Z,30.65
2023-02-12T04:47:18.463Z,28.75
2023-02-12T04:49:48.000Z,30.27
2023-02-12T04:52:14.381Z,30.23
2023-02-12T04:54:40.865Z,28.65
2023-02-12T04:57:07.350Z,27.90
2023-02-12T04:59:33.760Z,28.58
2023-02-12T05:02:00.363Z,27.27
2023-02-12T05:04:26.815Z,27.58
2023-02-12T05:06:54.400Z,28.77
2023-02-12T05:09:21.232Z,26.42
2023-02-12T05:11:47.620Z,27.67
2023-02-12T05:14:14.028Z,27.02
2023-02-12T05:16:40.507Z,27.70
2023-02-12T05:19:09.355Z,27.80
2023-02-12T05:21:36.153Z,28.63
2023-02-12T05:24:03.332Z,27.83
2023-02-12T05:26:30.477Z,29.00
2023-02-12T05:28:56.923Z,27.30
2023-02-12T05:31:23.397Z,27.85
2023-02-12T05:33:50.322Z,29.42
2023-02-12T05:36:25.419Z,29.05
2023-02-12T05:38:52.535Z,29.25
2023-02-12T05:41:23.843Z,27.70
2023-02-12T05:43:50.623Z,27.98
2023-02-12T05:46:17.923Z,27.55
2023-02-12T05:48:44.355Z,27.73
2023-02-12T05:51:12.045Z,25.55
2023-02-12T05:53:39.155Z,26.25
2023-02-12T05:56:16.169Z,26.10
2023-02-12T05:58:43.687Z,25.73
2023-02-12T06:01:14.902Z,25.80
2023-02-12T06:03:41.328Z,26.05
2023-02-12T06:06:08.061Z,27.00
2023-02-12T06:08:34.660Z,25.70
2023-02-12T06:11:02.538Z,26.63
2023-02-12T06:13:29.609Z,26.90
2023-02-12T06:15:56.382Z,27.38
2023-02-12T06:18:22.919Z,26.80
2023-02-12T06:20:49.327Z,26.80
2023-02-12T06:23:17.028Z,25.90
2023-02-12T06:25:43.404Z,24.70
2023-02-12T06:28:09.821Z,26.52
2023-02-12T06:30:36.251Z,26.60
2023-02-12T06:33:02.692Z,26.30
2023-02-12T06:35:29.092Z,25.35
2023-02-12T06:37:55.470Z,24.15
2023-02-12T06:40:22.148Z,24.98
2023-02-12T06:42:50.308Z,24.35
2023-02-12T06:45:16.872Z,25.80
2023-02-12T06:47:43.247Z,25.33
2023-02-12T06:50:09.900Z,25.50
2023-02-12T06:52:36.330Z,26.95
2023-02-12T06:55:02.714Z,25.55
2023-02-12T06:57:29.944Z,24.40
2023-02-12T06:59:56.438Z,25.05
2023-02-12T07:02:25.642Z,24.40
2023-02-12T07:04:52.069Z,24.50
2023-02-12T07:07:18.417Z,25.33
2023-02-12T07:09:49.357Z,24.42
2023-02-12T07:12:15.802Z,23.15
2023-02-12T07:14:42.200Z,25.45
2023-02-12T07:17:10.016Z,24.13
2023-02-12T07:19:36.523Z,24.15
2023-02-12T07:22:02.952Z,23.60
2023-02-12T07:24:29.308Z,25.08
2023-02-12T07:26:55.733Z,24.48
2023-02-12T07:29:22.061Z,23.90
2023-02-12T07:31:48.493Z,23.63
2023-02-12T07:34:14.972Z,23.25
2023-02-12T07:36:42.160Z,22.75
2023-02-12T07:39:10.450Z,23.17
2023-02-12T07:41:36.961Z,22.95
2023-02-12T07:44:06.853Z,23.30
2023-02-12T07:46:40.072Z,23.73
2023-02-12T07:49:07.610Z,21.85
2023-02-12T07:51:34.931Z,21.75
2023-02-12T07:54:01.837Z,21.20
2023-02-12T07:56:31.014Z,21.33
2023-02-12T07:58:58.055Z,24.08
2023-02-12T08:01:27.039Z,22.05
2023-02-12T08:03:53.920Z,21.15
2023-02-12T08:06:21.753Z,20.58
2023-02-12T08:08:48.580Z,20.48
2023-02-12T08:11:15.652Z,22.25
2023-02-12T08:13:42.107Z,20.80
2023-02-12T08:16:10.148Z,18.27
2023-02-12T08:18:37.033Z,18.58
2023-02-12T08:21:07.075Z,18.70
2023-02-12T08:23:34.389Z,18.50
2023-02-12T08:26:06.776Z,17.85
2023-02-12T08:28:33.187Z,17.67
2023-02-12T08:31:00.315Z,16.40
2023-02-12T08:33:26.728Z,17.30
2023-02-12T08:36:01.004Z,18.52
2023-02-12T08:38:27.838Z,18.43
2023-02-12T08:40:54.272Z,19.35
2023-02-12T08:43:20.659Z,19.15
2023-02-12T08:45:47.084Z,20.15
2023-02-12T08:48:13.455Z,18.30
2023-02-12T08:50:39.982Z,18.92
2023-02-12T08:53:07.814Z,19.63
2023-02-12T08:55:34.183Z,19.83
2023-02-12T08:58:01.320Z,20.75
2023-02-12T09:00:27.722Z,20.75
2023-02-12T09:02:54.051Z,22.23
2023-02-12T09:05:20.490Z,22.05
2023-02-12T09:07:47.064Z,22.48
2023-02-12T09:10:14.003Z,22.95
2023-02-12T09:12:40.462Z,23.52
2023-02-12T09:15:07.029Z,22.17
2023-02-12T09:17:33.345Z,21.48
2023-02-12T09:20:01.428Z,21.13
2023-02-12T09:22:27.831Z,21.35
2023-02-12T09:24:54.158Z,21.27
2023-02-12T09:27:20.474Z,21.38
2023-02-12T09:29:46.861Z,20.77
2023-02-12T09:32:13.278Z,19.95
2023-02-12T09:34:39.692Z,20.70
2023-02-12T09:37:06.060Z,21.95
2023-02-12T09:39:32.358Z,21.00
2023-02-12T09:41:58.734Z,20.20
2023-02-12T09:44:45.331Z,20.13
2023-02-12T09:47:30.266Z,21.80
2023-02-12T09:50:03.094Z,19.05
2023-02-12T09:52:29.995Z,19.23
2023-02-12T09:54:56.882Z,19.75
2023-02-12T09:57:29.655Z,20.45
2023-02-12T10:00:02.146Z,19.98
2023-02-12T10:02:28.535Z,19.10
2023-02-12T10:05:01.514Z,20.52
2023-02-12T10:07:43.898Z,18.75
2023-02-12T10:10:15.419Z,19.05
2023-02-12T10:12:50.809Z,18.55
2023-02-12T10:15:17.126Z,17.50
2023-02-12T10:17:43.610Z,16.17
2023-02-12T10:20:09.918Z,16.73
2023-02-12T10:22:57.272Z,15.93
2023-02-12T10:25:54.083Z,15.48
2023-02-12T10:28:26.312Z,15.93
2023-02-12T10:30:58.968Z,16.92
2023-02-12T10:33:27.499Z,16.70
2023-02-12T10:36:14.136Z,14.18
2023-02-12T10:38:43.017Z,15.23
2023-02-12T10:41:15.005Z,13.52
2023-02-12T10:43:41.384Z,12.77
2023-02-12T10:46:13.409Z,13.77
2023-02-12T10:48:41.569Z,12.50
2023-02-12T10:51:08.016Z,11.52
2023-02-12T10:53:39.308Z,12.77
2023-02-12T10:56:05.680Z,12.05
2023-02-12T10:58:32.143Z,11.82
2023-02-12T11:00:59.482Z,11.27
2023-02-12T11:03:30.242Z,11.77
2023-02-12T11:05:57.127Z,10.10
2023-02-12T11:08:29.555Z,9.93
2023-02-12T11:10:56.044Z,10.45
2023-02-12T11:13:24.115Z,10.57
2023-02-12T11:15:50.508Z,10.70
2023-02-12T11:18:28.041Z,10.48
2023-02-12T11:21:03.788Z,10.65
2023-02-12T11:23:34.802Z,11.32
2023-02-12T11:26:22.383Z,11.70
2023-02-12T11:29:02.581Z,12.00
2023-02-12T11:31:29.081Z,11.82
2023-02-12T11:34:04.653Z,12.30
2023-02-12T11:36:35.871Z,13.15
2023-02-12T11:39:02.489Z,13.88
2023-02-12T11:41:37.076Z,14.23
2023-02-12T11:44:16.607Z,14.75
2023-02-12T11:46:47.778Z,15.45
2023-02-12T11:49:21.830Z,15.60
2023-02-12T11:51:48.825Z,16.23
2023-02-12T11:54:19.087Z,16.83
2023-02-12T11:56:46.608Z,16.35
2023-02-12T11:59:31.968Z,16.63
2023-02-12T12:02:01.416Z,17.77
2023-02-12T12:04:29.593Z,17.02
2023-02-12T12:07:00.071Z,16.48
2023-02-12T12:09:29.326Z,18.23
2023-02-12T12:12:09.128Z,17.85
2023-02-12T12:14:58.579Z,19.20
2023-02-12T12:17:45.494Z,18.65
2023-02-12T12:20:17.756Z,19.02
2023-02-12T12:22:46.923Z,18.48
2023-02-12T12:25:18.663Z,18.38
2023-02-12T12:28:02.963Z,18.58
2023-02-12T12:30:37.414Z,20.85
2023-02-12T12:33:06.873Z,18.30
2023-02-12T12:35:41.303Z,18.10
2023-02-12T12:38:15.167Z,18.65
2023-02-12T12:40:42.143Z,19.45
2023-02-12T12:43:19.260Z,17.63
2023-02-12T12:46:03.940Z,18.33
2023-02-12T12:48:49.236Z,18.02
2023-02-12T12:51:15.812Z,19.93
2023-02-12T12:53:45.008Z,20.23
2023-02-12T12:56:17.570Z,19.63
2023-02-12T12:58:52.685Z,19.73
2023-02-12T13:01:22.157Z,17.48
2023-02-12T13:03:48.857Z,19.42
2023-02-12T13:06:18.266Z,18.77
2023-02-12T13:08:56.981Z,20.60
2023-02-12T13:11:43.969Z,20.58
2023-02-12T13:14:19.714Z,19.50
2023-02-12T13:16:56.762Z,21.35
2023-02-12T13:19:38.232Z,21.58
2023-02-12T13:22:04.541Z,20.83
2023-02-12T13:24:43.157Z,22.10
2023-02-12T13:27:15.301Z,24.73
2023-02-12T13:29:44.376Z,21.55
2023-02-12T13:32:16.908Z,21.33
2023-02-12T13:34:43.992Z,23.63
2023-02-12T13:37:15.252Z,23.83
2023-02-12T13:39:43.411Z,22.05
2023-02-12T13:42:10.171Z,22.58
2023-02-12T13:45:00.006Z,23.73
2023-02-12T13:47:38.165Z,22.58
2023-02-12T13:50:11.315Z,22.02
2023-02-12T13:52:49.809Z,21.90
2023-02-12T13:55:19.243Z,20.27
2023-02-12T13:57:45.638Z,20.15
2023-02-12T14:00:35.320Z,19.58
2023-02-12T14:03:08.055Z,20.08
2023-02-12T14:05:35.287Z,20.25
2023-02-12T14:08:05.221Z,20.25
2023-02-12T14:10:36.799Z,20.42
2023-02-12T14:13:15.081Z,19.67
2023-02-12T14:15:44.617Z,18.52
2023-02-12T14:18:25.294Z,17.30
2023-02-12T14:21:10.537Z,16.88
2023-02-12T14:23:37.562Z,17.25
2023-02-12T14:26:10.283Z,16.85
2023-02-12T14:28:36.618Z,15.95
2023-02-12T14:31:18.203Z,16.40
2023-02-12T14:33:45.642Z,15.57
2023-02-12T14:36:13.764Z,14.85
2023-02-12T14:38:47.568Z,16.15
2023-02-12T14:41:34.659Z,15.00
2023-02-12T14:44:27.403Z,13.98
2023-02-12T14:46:53.905Z,12.10
2023-02-12T14:49:26.415Z,11.57
2023-02-12T14:52:02.158Z,12.60
2023-02-12T14:54:31.460Z,12.48
2023-02-12T14:57:01.431Z,14.23
2023-02-12T14:59:29.431Z,13.00
2023-02-12T15:01:58.820Z,14.98
2023-02-12T15:04:29.971Z,13.93
2023-02-12T15:07:04.882Z,13.82
2023-02-12T15:09:46.550Z,14.25
2023-02-12T15:12:17.292Z,13.68
2023-02-12T15:14:50.071Z,14.00
2023-02-12T15:17:20.803Z,13.98
2023-02-12T15:19:50.696Z,14.48
2023-02-12T15:22:17.041Z,13.75
2023-02-12T15:24:46.815Z,13.70
2023-02-12T15:27:15.361Z,14.50
2023-02-12T15:29:43.146Z,16.67
2023-02-12T15:32:14.980Z,19.92
2023-02-12T15:34:42.839Z,25.55
2023-02-12T15:37:09.760Z,28.10
2023-02-12T15:39:41.560Z,32.88
2023-02-12T15:42:23.249Z,36.33
2023-02-12T15:44:50.520Z,38.33
2023-02-12T15:47:17.275Z,38.13
2023-02-12T15:49:44.022Z,37.63
2023-02-12T15:52:17.476Z,35.10
2023-02-12T15:54:45.101Z,32.30
2023-02-12T15:57:13.149Z,26.02
2023-02-12T15:59:40.206Z,23.67
2023-02-12T16:02:20.743Z,21.00
2023-02-12T16:04:47.455Z,20.85
2023-02-12T16:07:14.611Z,20.17
2023-02-12T16:09:42.001Z,19.52
2023-02-12T16:12:13.586Z,19.92
2023-02-12T16:14:43.593Z,18.63
2023-02-12T16:17:19.103Z,18.88
2023-02-12T16:22:19.562Z,18.60
2023-02-12T16:24:47.453Z,19.00
2023-02-12T16:27:21.901Z,18.00
2023-02-12T16:29:56.189Z,19.95
2023-02-12T16:32:49.077Z,20.98
2023-02-12T16:35:15.403Z,24.48
2023-02-12T16:37:46.208Z,25.38
2023-02-12T16:40:12.586Z,24.88
2023-02-12T16:42:51.926Z,26.08
2023-02-12T16:45:34.729Z,26.70
2023-02-12T16:48:05.082Z,24.25
2023-02-12T16:50:34.250Z,25.20
2023-02-12T16:53:04.739Z,25.15
2023-02-12T16:55:31.821Z,22.98
2023-02-12T16:57:58.332Z,22.90
2023-02-12T17:00:24.814Z,22.77
2023-02-12T17:02:51.147Z,22.13
2023-02-12T17:05:18.505Z,23.92
2023-02-12T17:07:45.136Z,21.40
2023-02-12T17:10:15.299Z,21.05
2023-02-12T17:12:45.193Z,20.38
2023-02-12T17:15:15.709Z,21.00
2023-02-12T17:17:42.306Z,19.65
2023-02-12T17:20:08.833Z,20.90
2023-02-12T17:22:36.475Z,20.33
2023-02-12T17:25:02.834Z,23.65
2023-02-12T17:27:29.264Z,22.25
2023-02-12T17:29:55.608Z,20.83
2023-02-12T17:32:24.420Z,20.25
2023-02-12T17:34:50.882Z,23.38
2023-02-12T17:37:18.246Z,23.27
2023-02-12T17:39:44.794Z,24.35
2023-02-12T17:42:12.142Z,26.08
2023-02-12T17:44:39.959Z,26.33
2023-02-12T17:47:06.320Z,25.00
2023-02-12T17:49:34.013Z,26.02
2023-02-12T17:52:00.416Z,26.10
2023-02-12T17:54:26.896Z,25.13
2023-02-12T17:56:53.322Z,25.42
2023-02-12T17:59:19.719Z,24.98
2023-02-12T18:01:46.246Z,31.88
2023-02-12T18:04:12.804Z,20.20
2023-02-12T18:06:39.343Z,22.75
2023-02-12T18:09:06.016Z,20.05
2023-02-12T18:11:33.052Z,19.88
2023-02-12T18:14:00.272Z,18.85
2023-02-12T18:16:28.738Z,20.60
2023-02-12T18:18:55.468Z,19.90
2023-02-12T18:21:21.840Z,18.63
2023-02-12T18:23:48.293Z,18.45
2023-02-12T18:26:16.184Z,19.85
2023-02-12T18:28:42.606Z,18.17
2023-02-12T18:31:09.732Z,19.35
2023-02-12T18:33:36.978Z,20.25
2023-02-12T18:36:03.442Z,20.02
2023-02-12T18:38:30.378Z,22.42
2023-02-12T18:40:57.081Z,19.50
2023-02-12T18:43:24.896Z,18.67
2023-02-12T18:45:51.495Z,17.98
2023-02-12T18:48:18.162Z,19.60
2023-02-12T18:50:44.597Z,18.25
2023-02-12T18:53:11.301Z,19.25
2023-02-12T18:55:38.979Z,18.42
2023-02-12T18:58:05.477Z,17.85
2023-02-12T19:00:31.870Z,18.88
2023-02-12T19:02:58.238Z,19.33
2023-02-12T19:05:26.291Z,18.42
2023-02-12T19:07:52.696Z,18.73
2023-02-12T19:10:19.150Z,19.50
2023-02-12T19:12:45.646Z,19.45
2023-02-12T19:15:12.393Z,18.90
2023-02-12T19:17:38.700Z,19.48
2023-02-12T19:20:05.266Z,18.55
2023-02-12T19:22:31.729Z,18.35
2023-02-12T19:24:58.137Z,19.33
2023-02-12T19:27:24.510Z,20.55
2023-02-12T19:29:50.874Z,20.40
2023-02-12T19:32:17.280Z,21.38
2023-02-12T19:34:43.837Z,20.80
2023-02-12T19:37:11.808Z,21.83
2023-02-12T19:39:38.378Z,22.85
2023-02-12T19:42:05.049Z,20.95
2023-02-12T19:44:31.388Z,21.58
2023-02-12T19:46:57.826Z,20.30
2023-02-12T19:49:25.035Z,18.25
2023-02-12T19:51:51.889Z,20.00
2023-02-12T19:54:19.188Z,18.85
2023-02-12T19:56:48.517Z,17.98
2023-02-12T19:59:19.570Z,19.70
2023-02-12T20:01:46.478Z,18.08
2023-02-12T20:04:13.510Z,17.20
2023-02-12T20:06:40.584Z,20.05
2023-02-12T20:09:07.538Z,18.23
2023-02-12T20:11:37.351Z,18.98
2023-02-12T20:14:04.465Z,19.05
2023-02-12T20:16:36.168Z,19.08
2023-02-12T20:19:07.633Z,18.17
2023-02-12T20:21:34.058Z,18.40
2023-02-12T20:24:01.710Z,16.20
2023-02-12T20:26:32.229Z,16.98
2023-02-12T20:28:59.153Z,16.95
2023-02-12T20:31:27.278Z,17.77
2023-02-12T20:33:58.018Z,18.13
2023-02-12T20:36:25.082Z,18.52
2023-02-12T20:38:56.075Z,18.75
2023-02-12T20:44:04.415Z,18.95
2023-02-12T20:46:30.956Z,18.20
2023-02-12T20:48:58.444Z,19.65
2023-02-12T20:51:26.575Z,16.80
2023-02-12T20:53:54.093Z,19.25
2023-02-12T20:56:22.119Z,20.50
2023-02-12T20:58:48.463Z,18.95
2023-02-12T21:01:17.248Z,18.73
2023-02-12T21:03:44.552Z,19.73
2023-02-12T21:06:11.502Z,19.55
2023-02-12T21:08:41.447Z,20.15
2023-02-12T21:11:12.970Z,18.45
2023-02-12T21:13:39.380Z,17.50
2023-02-12T21:16:10.040Z,19.27
2023-02-12T21:18:36.479Z,18.42
2023-02-12T21:21:04.174Z,21.52
2023-02-12T21:23:30.670Z,19.38
2023-02-12T21:26:04.128Z,23.63
2023-02-12T21:28:32.272Z,20.27
2023-02-12T21:31:05.399Z,20.45
2023-02-12T21:33:31.877Z,19.10
2023-02-12T21:35:58.411Z,21.17
2023-02-12T21:38:24.964Z,18.52
2023-02-12T21:40:51.398Z,18.35
2023-02-12T21:43:17.704Z,19.35
2023-02-12T21:45:51.029Z,18.77
2023-02-12T21:48:17.467Z,19.73
2023-02-12T21:50:43.835Z,19.60
2023-02-12T21:53:10.188Z,19.40
2023-02-12T21:55:37.759Z,20.10
2023-02-12T21:58:04.056Z,19.20
2023-02-12T22:00:30.465Z,20.10
2023-02-12T22:02:56.776Z,20.10
2023-02-12T22:05:23.099Z,20.73
2023-02-12T22:07:50.119Z,20.15
2023-02-12T22:10:16.706Z,22.27
2023-02-12T22:12:43.034Z,21.85
2023-02-12T22:15:10.559Z,21.52
2023-02-12T22:17:37.033Z,21.48
2023-02-12T22:20:03.690Z,22.95
2023-02-12T22:22:30.110Z,22.38
2023-02-12T22:24:56.538Z,23.30
2023-02-12T22:27:22.854Z,22.08
2023-02-12T22:29:50.294Z,23.33
2023-02-12T22:32:16.920Z,23.02
2023-02-12T22:34:43.712Z,22.63
2023-02-12T22:37:10.101Z,22.60
2023-02-12T22:39:36.462Z,22.17
2023-02-12T22:42:02.929Z,24.08
2023-02-12T22:44:29.300Z,25.80
2023-02-12T22:46:56.219Z,25.85
2023-02-12T22:49:22.647Z,26.05
2023-02-12T22:51:48.974Z,26.63
2023-02-12T22:54:16.528Z,25.15
2023-02-12T22:56:43.118Z,25.23
2023-02-12T22:59:10.184Z,27.70
2023-02-12T23:01:36.719Z,26.90
2023-02-12T23:04:03.258Z,26.20
2023-02-12T23:06:30.675Z,25.92
2023-02-12T23:09:02.166Z,26.60
2023-02-12T23:11:29.325Z,27.05
2023-02-12T23:13:56.236Z,24.88
2023-02-12T23:16:22.751Z,25.38
2023-02-12T23:18:49.328Z,24.10
2023-02-12T23:21:15.705Z,26.67
2023-02-12T23:23:42.138Z,24.10
2023-02-12T23:26:08.528Z,24.45
2023-02-12T23:28:35.112Z,24.23
2023-02-12T23:31:01.997Z,24.10
2023-02-12T23:33:28.695Z,26.10
2023-02-12T23:35:55.184Z,26.50
2023-02-12T23:38:21.549Z,26.48
2023-02-12T23:40:48.341Z,25.50
2023-02-12T23:43:15.069Z,25.10
2023-02-12T23:45:43.033Z,24.92
2023-02-12T23:48:09.452Z,26.92
2023-02-12T23:50:35.853Z,27.48
2023-02-12T23:53:02.399Z,27.00
2023-02-12T23:55:28.945Z,28.75
2023-02-12T23:57:55.306Z,27.15
